Meteo Giornale » Osservazioni meteo Stati Uniti (USA) » Brownsville-South Padre Island Int
ore: 13:53 - Osservazioni Meteo Brownsville-South Padre Island Int
Lat. 25° 54' N Lon. 97° 25' W Alt. 7 metri s.l.m.
37 °C
Poco Nuvoloso
Temp. 24 Ore
26 °C
37 °C
Sud-Est
22.2 Km/h
Dew point 23 °C
Umidità 44 %
Visibilità 10 Km
Il sole sorge alle ore 07:09
Il sole tramonta alle ore 19:49
| Data e Ora | Cielo e Fenomeni | T °C | DP °C | Um. % | Pres. hPa | Vis. km | Vento km/h | |
|---|---|---|---|---|---|---|---|---|
| Oggi h: 13:53 | Poco Nuvoloso | 37 | 23 | 44 | 1013 | 10 | SE 22.2 | |
| Oggi h: 12:53 | Poco Nuvoloso | 37 | 23 | 44 | 1014 | 10 | SE 18.5 | |
| Oggi h: 11:53 | Poco Nuvoloso | 36 | 23 | 47 | 1014 | 10 | S 18.5 | |
| Oggi h: 10:53 | Poco Nuvoloso | 34 | 23 | 52 | 1015 | 10 | S/SE 18.5 | |
| Oggi h: 09:53 | Poco Nuvoloso | 33 | 24 | 59 | 1015 | 10 | S 24 | |
| Oggi h: 08:53 | Sereno | 30 | 25 | 74 | 1014 | 10 | S 11.1 | |
| Oggi h: 07:53 | Sereno | 27 | 24 | 83 | 1014 | 10 | N 0 | |
| Oggi h: 06:53 | Sereno | 26 | 24 | 88 | 1014 | 10 | N 5.5 | |
| Oggi h: 05:53 | Sereno | 26 | 24 | 88 | 1014 | 10 | S/SE 7.4 | |
| Oggi h: 04:53 | Sereno | 26 | 24 | 88 | 1014 | 10 | S 9.3 | |
| Oggi h: 03:53 | Sereno | 27 | 24 | 83 | 1014 | 10 | S/SE 7.4 | |
| Oggi h: 02:53 | Sereno | 27 | 24 | 83 | 1014 | 10 | S 7.4 | |
| Oggi h: 01:53 | Sereno | 27 | 24 | 83 | 1014 | 10 | S/SE 9.3 | |
| Oggi h: 00:53 | Sereno | 28 | 24 | 78 | 1014 | 10 | S 11.1 | |
| Ieri h: 23:53 | Sereno | 28 | 24 | 78 | 1015 | 10 | S/SE 11.1 | |
| Ieri h: 22:53 | Sereno | 29 | 24 | 74 | 1015 | 10 | S/SE 11.1 | |
| Ieri h: 21:53 | Sereno | 29 | 24 | 74 | 1014 | 10 | SE 14.8 | |
| Ieri h: 20:53 | Sereno | 30 | 24 | 70 | 1013 | 10 | SE 13 | |
| Ieri h: 19:53 | Sereno | 31 | 24 | 66 | 1012 | 10 | SE 25.9 | |
| Ieri h: 18:53 | Sereno | 32 | 24 | 62 | 1012 | 10 | E/SE 25.9 | |
| Ieri h: 17:53 | Sereno | 34 | 23 | 52 | 1012 | 10 | SE 27.8 | |
| Ieri h: 16:53 | Sereno | 36 | 23 | 47 | 1012 | 10 | E/SE 31.5 | |
| Ieri h: 15:53 | Sereno | 36 | 23 | 47 | 1012 | 10 | SE 25.9 | |
| Ieri h: 14:53 | Sereno | 37 | 23 | 44 | 1013 | 10 | SE 24 | |



